Time;durP1;ratioP1;P1;durP2;ratioP2;P2;SDS_P1;SDS_P2;PMS_P1;PMS_P2;Temp;Humidity;BMP_temperature;BMP_pressure;BME280_temperature;BME280_humidity;BME280_pressure;Samples;Min_cycle;Max_cycle;Signal;HPM_P1;HPM_P2
2021/04/04 00:02:00;;;;;;;16.57;12.10;;;;;;;4.28;62.99;100215.23;1703768;82;21660;-41
2021/04/04 00:04:28;;;;;;;17.07;12.07;;;;;;;4.26;63.02;100210.03;1691865;84;21179;-39
2021/04/04 00:06:55;;;;;;;19.98;12.85;;;;;;;4.25;63.01;100212.25;1694584;82;21452;-39
2021/04/04 00:09:23;;;;;;;20.85;13.68;;;;;;;4.25;63.09;100210.94;1695074;83;21628;-40
2021/04/04 00:11:51;;;;;;;20.45;13.35;;;;;;;4.24;63.16;100211.02;1694548;82;21172;-40
2021/04/04 00:14:19;;;;;;;19.50;14.40;;;;;;;4.24;63.18;100212.33;1706494;82;21210;-40
2021/04/04 00:16:48;;;;;;;20.72;13.43;;;;;;;4.21;63.15;100207.14;1692969;82;21141;-40
2021/04/04 00:19:16;;;;;;;20.12;14.18;;;;;;;4.19;63.11;100207.67;1719574;81;21157;-40
2021/04/04 00:21:43;;;;;;;22.62;14.03;;;;;;;4.17;63.08;100203.77;1669391;83;21156;-39
2021/04/04 00:24:12;;;;;;;23.30;14.70;;;;;;;4.15;63.06;100202.09;1686396;83;21668;-40
2021/04/04 00:26:40;;;;;;;19.60;13.75;;;;;;;4.13;63.11;100211.38;1695864;83;21169;-39
2021/04/04 00:29:08;;;;;;;22.07;14.15;;;;;;;4.12;63.19;100210.98;1717451;82;21625;-39
2021/04/04 00:31:36;;;;;;;20.88;13.58;;;;;;;4.10;63.22;100212.81;1689346;83;21149;-40
2021/04/04 00:34:04;;;;;;;25.20;14.95;;;;;;;4.07;63.26;100208.97;1693761;83;21210;-39
2021/04/04 00:36:33;;;;;;;23.18;15.70;;;;;;;4.05;63.27;100204.20;1691719;83;21169;-42
2021/04/04 00:39:08;;;;;;;22.13;15.38;;;;;;;4.01;63.27;100198.19;1686225;83;21156;-38
2021/04/04 00:41:35;;;;;;;22.45;15.50;;;;;;;3.99;63.30;100194.73;1689703;83;21608;-42
2021/04/04 00:44:04;;;;;;;23.85;15.65;;;;;;;3.98;63.33;100192.14;1698108;83;21969;-40
2021/04/04 00:46:32;;;;;;;27.02;17.15;;;;;;;3.97;63.39;100191.75;1686570;83;21183;-40
2021/04/04 00:49:00;;;;;;;28.73;18.70;;;;;;;3.96;63.50;100195.31;1687208;83;21179;-40
2021/04/04 00:51:28;;;;;;;30.77;20.12;;;;;;;3.94;63.50;100193.19;1681003;83;21165;-39
2021/04/04 00:53:57;;;;;;;26.77;17.82;;;;;;;3.93;63.44;100195.40;1688486;83;21172;-40
2021/04/04 00:56:25;;;;;;;26.65;17.37;;;;;;;3.89;63.35;100195.52;1696132;83;21227;-40
2021/04/04 00:58:53;;;;;;;25.92;18.57;;;;;;;3.83;63.27;100204.09;1704525;82;21592;-39
2021/04/04 01:01:22;;;;;;;22.77;15.93;;;;;;;3.75;63.28;100212.27;1702819;82;21137;-39
2021/04/04 01:03:49;;;;;;;26.15;17.67;;;;;;;3.70;63.36;100208.94;1697782;82;21199;-38
2021/04/04 01:06:17;;;;;;;24.52;17.67;;;;;;;3.66;63.37;100209.52;1690399;82;21613;-42
2021/04/04 01:08:45;;;;;;;23.57;17.67;;;;;;;3.57;63.37;100213.77;1718075;81;21631;-43
2021/04/04 01:11:14;;;;;;;25.70;17.45;;;;;;;3.51;63.58;100217.09;1675874;83;21956;-42
2021/04/04 01:13:59;;;;;;;25.70;19.05;;;;;;;3.49;63.76;100213.17;1703740;82;21177;-43
2021/04/04 01:16:40;;;;;;;29.55;19.62;;;;;;;3.50;63.85;100217.98;1704323;82;21623;-44
2021/04/04 01:19:29;;;;;;;30.50;18.70;;;;;;;3.49;63.80;100207.90;1704545;82;21179;-42
2021/04/04 01:22:49;;;;;;;29.57;20.43;;;;;;;3.36;63.64;100206.13;1698760;82;21173;-41
2021/04/04 01:25:29;;;;;;;28.70;19.30;;;;;;;3.16;63.63;100212.05;1692198;82;21164;-39
2021/04/04 01:28:09;;;;;;;29.02;19.45;;;;;;;3.04;64.06;100211.13;1689051;83;21146;-40
2021/04/04 01:30:38;;;;;;;31.23;19.73;;;;;;;3.02;64.39;100217.77;1694181;82;21176;-41
2021/04/04 01:33:09;;;;;;;29.72;20.80;;;;;;;3.02;64.65;100212.94;1708907;82;21201;-41
2021/04/04 01:35:39;;;;;;;34.33;21.35;;;;;;;3.03;64.85;100218.62;1670230;82;21159;-41
2021/04/04 01:38:12;;;;;;;32.08;22.20;;;;;;;2.98;65.06;100221.87;1700284;82;21609;-39
2021/04/04 01:40:36;;;;;;;38.35;23.67;;;;;;;2.93;65.08;100226.42;1683458;83;21195;-39
2021/04/04 01:43:05;;;;;;;37.60;23.92;;;;;;;2.80;65.17;100228.56;1714539;81;21185;-39
2021/04/04 01:45:33;;;;;;;37.78;23.05;;;;;;;2.65;65.61;100230.35;1722079;81;21218;-41
2021/04/04 01:48:02;;;;;;;35.65;24.27;;;;;;;2.54;66.17;100228.02;1720118;81;21585;-41
2021/04/04 01:50:30;;;;;;;37.10;23.95;;;;;;;2.51;66.69;100229.42;1712862;81;21172;-41
2021/04/04 01:52:58;;;;;;;38.40;24.65;;;;;;;2.53;67.25;100231.56;1693902;81;21157;-41
2021/04/04 01:55:25;;;;;;;39.80;25.95;;;;;;;2.51;67.98;100234.23;1698104;81;21201;-41
2021/04/04 01:57:53;;;;;;;40.58;25.97;;;;;;;2.48;68.28;100236.10;1702017;82;21137;-41
2021/04/04 02:00:25;;;;;;;37.13;23.35;;;;;;;2.48;68.54;100242.22;1649757;83;21188;-44
2021/04/04 02:02:52;;;;;;;40.78;26.35;;;;;;;2.54;68.75;100228.02;1683500;83;21195;-44
2021/04/04 02:05:20;;;;;;;38.55;25.50;;;;;;;2.59;69.06;100224.78;1722833;81;21383;-45
2021/04/04 02:07:50;;;;;;;40.25;24.85;;;;;;;2.66;69.22;100226.34;1725518;81;21788;-40
2021/04/04 02:10:23;;;;;;;37.42;26.35;;;;;;;2.74;69.29;100226.95;1701459;82;21204;-41
2021/04/04 02:12:52;;;;;;;35.95;24.07;;;;;;;2.84;69.24;100221.42;1686338;83;21177;-41
2021/04/04 02:15:20;;;;;;;41.15;26.90;;;;;;;2.94;69.18;100226.81;1687510;82;21172;-40
2021/04/04 02:17:49;;;;;;;41.83;25.08;;;;;;;3.00;69.03;100225.33;1694688;82;21672;-41
2021/04/04 02:20:20;;;;;;;43.25;26.87;;;;;;;2.98;68.89;100229.77;1704679;81;21953;-40
2021/04/04 02:22:48;;;;;;;45.52;27.37;;;;;;;2.90;68.71;100233.96;1711883;82;21562;-40
2021/04/04 02:25:16;;;;;;;41.70;27.07;;;;;;;2.75;68.90;100233.97;1694944;83;21164;-41
2021/04/04 02:27:45;;;;;;;45.85;28.10;;;;;;;2.66;69.42;100234.23;1708181;82;21197;-42
2021/04/04 02:30:17;;;;;;;45.88;27.70;;;;;;;2.68;69.86;100236.83;1707061;82;21256;-41
2021/04/04 02:33:10;;;;;;;41.53;27.48;;;;;;;2.70;70.08;100233.25;1702869;82;21197;-39
2021/04/04 02:35:41;;;;;;;49.25;29.57;;;;;;;2.72;70.28;100242.39;1707380;82;21601;-38
2021/04/04 02:38:20;;;;;;;48.50;30.80;;;;;;;2.71;70.61;100244.17;1716170;81;21155;-39
2021/04/04 02:40:48;;;;;;;46.28;29.55;;;;;;;2.65;70.85;100236.47;1683950;83;21253;-40
2021/04/04 02:43:16;;;;;;;47.58;28.10;;;;;;;2.63;71.06;100236.11;1719911;81;21627;-39
2021/04/04 02:45:44;;;;;;;41.95;26.82;;;;;;;2.59;71.28;100234.86;1688972;83;21694;-39
2021/04/04 02:48:16;;;;;;;46.05;29.55;;;;;;;2.64;71.52;100235.19;1682378;83;21145;-40
2021/04/04 02:50:45;;;;;;;42.08;28.20;;;;;;;2.67;71.69;100236.41;1681503;83;21229;-40
2021/04/04 02:53:13;;;;;;;38.58;24.85;;;;;;;2.68;71.93;100238.16;1676158;83;21147;-41
2021/04/04 02:55:41;;;;;;;42.93;26.65;;;;;;;2.68;72.08;100238.16;1687300;83;21191;-42
2021/04/04 02:58:10;;;;;;;40.88;28.02;;;;;;;2.72;72.25;100243.72;1718022;81;21173;-41
2021/04/04 03:00:40;;;;;;;41.88;27.40;;;;;;;2.76;72.33;100237.00;1713952;81;21291;-39
2021/04/04 03:03:08;;;;;;;40.12;26.10;;;;;;;2.80;72.43;100241.27;1683390;83;21181;-41
2021/04/04 03:05:36;;;;;;;39.90;26.80;;;;;;;2.86;72.52;100240.68;1729326;81;21172;-40
2021/04/04 03:08:05;;;;;;;40.00;25.72;;;;;;;2.93;72.36;100239.12;1713344;81;21668;-40
2021/04/04 03:10:34;;;;;;;42.23;26.23;;;;;;;3.01;72.09;100242.84;1669624;83;21327;-40
2021/04/04 03:13:02;;;;;;;40.05;24.82;;;;;;;3.08;71.92;100248.80;1704996;81;21202;-40
2021/04/04 03:15:31;;;;;;;43.73;25.80;;;;;;;3.14;71.85;100251.22;1705870;81;21180;-39
2021/04/04 03:17:59;;;;;;;39.95;24.57;;;;;;;3.15;71.85;100255.14;1703648;83;21216;-39
2021/04/04 03:20:26;;;;;;;38.13;25.05;;;;;;;3.16;71.89;100254.67;1716413;81;21150;-38
2021/04/04 03:22:54;;;;;;;42.83;26.00;;;;;;;3.21;71.90;100253.61;1678780;83;21644;-39
2021/04/04 03:25:21;;;;;;;41.25;26.35;;;;;;;3.27;71.88;100250.37;1667971;83;21180;-39
2021/04/04 03:27:49;;;;;;;33.55;22.73;;;;;;;3.30;71.85;100249.84;1695130;83;21209;-39
2021/04/04 03:30:36;;;;;;;37.93;24.52;;;;;;;3.34;71.84;100240.90;1718241;81;21150;-41
2021/04/04 03:33:05;;;;;;;35.60;24.63;;;;;;;3.39;71.76;100240.75;1693212;82;21141;-43
2021/04/04 03:35:34;;;;;;;34.43;23.98;;;;;;;3.44;71.67;100245.42;1704554;82;21531;-43
2021/04/04 03:38:03;;;;;;;35.10;23.62;;;;;;;3.47;71.66;100250.13;1701202;82;21181;-40
2021/04/04 03:40:31;;;;;;;33.50;23.02;;;;;;;3.52;71.63;100254.39;1699176;82;21202;-40
2021/04/04 03:43:01;;;;;;;33.33;25.05;;;;;;;3.56;71.66;100253.39;1724896;81;21173;-41
2021/04/04 03:45:29;;;;;;;32.95;22.73;;;;;;;3.58;71.74;100245.84;1671396;83;21613;-41
2021/04/04 03:47:56;;;;;;;31.95;22.52;;;;;;;3.62;71.80;100244.80;1709093;81;21178;-40
2021/04/04 03:50:24;;;;;;;29.90;20.88;;;;;;;3.66;71.81;100243.80;1721129;81;21349;-40
2021/04/04 03:52:51;;;;;;;33.75;22.65;;;;;;;3.70;71.82;100241.91;1722820;81;21185;-41
2021/04/04 03:55:22;;;;;;;31.12;22.82;;;;;;;3.73;71.88;100240.94;1677027;81;21982;-41
2021/04/04 03:57:50;;;;;;;34.03;23.27;;;;;;;3.75;71.89;100239.11;1683081;82;21590;-41
2021/04/04 04:00:21;;;;;;;32.78;22.13;;;;;;;3.76;71.89;100237.75;1717210;81;21153;-40
2021/04/04 04:02:49;;;;;;;32.20;23.70;;;;;;;3.79;71.93;100246.02;1692389;83;21190;-38
2021/04/04 04:05:17;;;;;;;34.78;23.92;;;;;;;3.81;71.88;100252.97;1696768;82;21203;-38
2021/04/04 04:07:45;;;;;;;32.53;23.85;;;;;;;3.85;71.79;100248.44;1728960;81;21173;-40
2021/04/04 04:10:14;;;;;;;33.55;21.62;;;;;;;3.86;71.60;100260.27;1718045;81;21612;-39
2021/04/04 04:12:44;;;;;;;39.08;24.32;;;;;;;3.83;71.50;100263.45;1715870;81;21165;-39
2021/04/04 04:15:14;;;;;;;34.40;21.90;;;;;;;3.72;71.68;100266.92;1697873;83;21133;-40
2021/04/04 04:17:45;;;;;;;32.60;22.17;;;;;;;3.57;71.98;100267.83;1715254;81;21138;-42
2021/04/04 04:20:14;;;;;;;34.78;22.20;;;;;;;3.52;72.41;100267.12;1715849;81;21192;-39
2021/04/04 04:22:41;;;;;;;29.67;22.10;;;;;;;3.54;72.72;100265.77;1726244;81;21419;-39
2021/04/04 04:25:10;;;;;;;32.65;21.35;;;;;;;3.61;72.93;100264.65;1722834;81;21196;-39
2021/04/04 04:27:38;;;;;;;30.35;20.82;;;;;;;3.68;73.02;100263.08;1714766;81;21612;-40
2021/04/04 04:30:07;;;;;;;33.38;20.88;;;;;;;3.77;72.96;100266.31;1717290;81;21633;-40
2021/04/04 04:32:37;;;;;;;26.80;19.02;;;;;;;3.82;72.69;100273.61;1692334;83;21253;-40
2021/04/04 04:35:06;;;;;;;30.43;21.02;;;;;;;3.81;72.52;100269.27;1683180;83;21169;-42
2021/04/04 04:37:35;;;;;;;28.50;19.67;;;;;;;3.84;72.64;100265.19;1700022;83;21153;-42
2021/04/04 04:40:10;;;;;;;30.90;19.85;;;;;;;3.91;72.93;100265.39;1697732;81;21187;-42
2021/04/04 04:42:41;;;;;;;31.55;20.62;;;;;;;4.00;72.98;100269.48;1719666;81;21263;-46
2021/04/04 04:45:23;;;;;;;30.20;20.75;;;;;;;4.08;72.92;100273.59;1693750;83;21252;-40
2021/04/04 04:47:52;;;;;;;31.90;20.72;;;;;;;4.12;72.69;100273.87;1692802;82;21140;-40
2021/04/04 04:50:22;;;;;;;40.35;25.68;;;;;;;4.04;72.74;100285.16;1704886;82;21819;-40
2021/04/04 04:52:51;;;;;;;32.75;22.45;;;;;;;3.87;73.29;100283.08;1698369;82;21474;-41
2021/04/04 04:55:19;;;;;;;30.68;19.95;;;;;;;3.80;73.56;100276.75;1699528;82;21189;-42
2021/04/04 04:57:47;;;;;;;23.98;16.85;;;;;;;3.82;73.83;100280.20;1690750;83;21187;-43
2021/04/04 05:00:16;;;;;;;24.32;17.52;;;;;;;3.85;73.69;100279.62;1672878;83;21569;-41
2021/04/04 05:02:44;;;;;;;25.55;17.62;;;;;;;3.88;73.49;100286.58;1693241;83;21189;-40
2021/04/04 05:05:13;;;;;;;28.30;18.25;;;;;;;3.93;73.42;100287.31;1648635;84;21192;-42
2021/04/04 05:07:42;;;;;;;27.42;18.30;;;;;;;3.97;73.27;100291.55;1695410;82;21306;-42
2021/04/04 05:10:13;;;;;;;27.75;16.82;;;;;;;3.97;73.49;100298.15;1700029;82;21191;-43
2021/04/04 05:12:49;;;;;;;24.90;15.58;;;;;;;3.95;73.58;100299.97;1694770;83;21602;-40
2021/04/04 05:15:18;;;;;;;23.70;14.75;;;;;;;3.95;73.65;100301.76;1667512;82;21613;-42
2021/04/04 05:17:47;;;;;;;22.93;16.93;;;;;;;3.98;73.56;100297.25;1670543;84;21164;-43
2021/04/04 05:20:18;;;;;;;28.23;17.60;;;;;;;4.06;73.22;100301.80;1652171;84;21621;-42
2021/04/04 05:22:46;;;;;;;27.32;16.25;;;;;;;4.12;73.15;100296.77;1677733;83;21780;-39
2021/04/04 05:25:14;;;;;;;20.57;16.40;;;;;;;4.18;72.97;100297.86;1691986;82;21165;-41
2021/04/04 05:27:42;;;;;;;23.52;17.57;;;;;;;4.26;73.04;100306.86;1691570;83;21202;-41
2021/04/04 05:30:11;;;;;;;29.52;18.10;;;;;;;4.27;73.16;100306.78;1675950;83;21197;-40
2021/04/04 05:32:47;;;;;;;25.97;17.20;;;;;;;4.28;73.30;100311.59;1703360;81;21188;-49
2021/04/04 05:35:17;;;;;;;25.43;17.60;;;;;;;4.28;73.50;100309.84;1674648;83;21167;-40
2021/04/04 05:37:46;;;;;;;31.42;20.30;;;;;;;4.32;73.74;100310.59;1717253;81;21153;-43
2021/04/04 05:40:25;;;;;;;27.00;20.23;;;;;;;4.37;73.80;100309.11;1696938;82;21155;-41
2021/04/04 05:42:58;;;;;;;27.30;19.20;;;;;;;4.45;73.78;100309.69;1692269;82;21160;-43
2021/04/04 05:45:45;;;;;;;37.08;19.60;;;;;;;4.57;73.71;100313.21;1696882;82;21205;-41
2021/04/04 05:48:56;;;;;;;28.62;18.73;;;;;;;4.67;73.83;100309.78;1671520;84;21623;-41
2021/04/04 05:51:38;;;;;;;24.52;15.25;;;;;;;4.75;74.35;100312.52;1691389;82;21145;-43
2021/04/04 05:54:28;;;;;;;25.12;16.15;;;;;;;4.86;73.82;100316.08;1648591;85;21215;-44
2021/04/04 05:57:03;;;;;;;22.43;15.43;;;;;;;4.97;72.71;100317.02;1634690;85;21204;-43
2021/04/04 06:00:07;;;;;;;23.90;14.40;;;;;;;5.12;72.59;100315.11;1804009;77;22809;-43
2021/04/04 06:03:09;;;;;;;23.10;14.93;;;;;;;5.19;72.64;100318.36;1773039;79;21136;-43
2021/04/04 06:06:02;;;;;;;23.60;15.65;;;;;;;5.30;72.26;100314.00;1711651;81;21196;-43
2021/04/04 06:08:55;;;;;;;26.40;14.85;;;;;;;5.40;71.91;100324.61;1731027;81;21148;-41
2021/04/04 06:11:59;;;;;;;20.77;13.85;;;;;;;5.47;71.41;100321.24;1728095;81;21181;-44
2021/04/04 06:14:56;;;;;;;13.93;10.03;;;;;;;5.54;71.28;100324.05;1724756;82;21152;-41
2021/04/04 06:17:40;;;;;;;12.88;8.53;;;;;;;5.62;70.42;100327.27;1724716;81;21281;-46
2021/04/04 06:20:28;;;;;;;13.30;7.85;;;;;;;5.70;69.54;100324.31;1718264;81;21145;-45
2021/04/04 06:23:00;;;;;;;13.25;8.48;;;;;;;5.77;68.41;100330.61;1729121;81;21564;-44
2021/04/04 06:25:55;;;;;;;10.00;7.10;;;;;;;5.85;67.97;100327.18;1761087;79;22972;-44
2021/04/04 06:28:48;;;;;;;11.63;7.45;;;;;;;5.88;67.68;100327.98;1685115;84;21177;-42
2021/04/04 06:31:33;;;;;;;12.82;7.30;;;;;;;5.93;67.35;100332.63;1699630;82;21173;-44
2021/04/04 06:34:12;;;;;;;8.00;6.20;;;;;;;5.98;67.11;100332.00;1679859;82;21173;-43
2021/04/04 06:37:11;;;;;;;8.65;5.65;;;;;;;6.03;66.52;100331.34;1682024;83;21152;-41
2021/04/04 06:40:09;;;;;;;7.25;5.33;;;;;;;6.06;65.95;100334.71;1685453;83;21154;-42
2021/04/04 06:43:04;;;;;;;9.58;5.03;;;;;;;6.08;65.81;100338.63;1665321;84;21391;-43
2021/04/04 06:46:06;;;;;;;6.12;3.95;;;;;;;6.14;65.70;100333.06;1712868;82;21137;-44
2021/04/04 06:48:57;;;;;;;7.60;4.87;;;;;;;6.19;65.90;100338.16;1706035;82;21153;-41
2021/04/04 06:52:18;;;;;;;7.42;4.83;;;;;;;6.20;65.08;100336.79;1711335;82;21182;-38
2021/04/04 06:55:24;;;;;;;5.92;4.12;;;;;;;6.19;64.81;100348.29;1683125;83;21539;-42
2021/04/04 06:58:19;;;;;;;14.50;8.43;;;;;;;6.20;65.07;100347.82;1707748;83;21133;-44
2021/04/04 07:01:04;;;;;;;11.33;7.17;;;;;;;6.19;65.40;100347.44;1708954;82;21161;-43
2021/04/04 07:03:41;;;;;;;10.78;8.18;;;;;;;6.19;65.82;100355.37;1713000;83;21170;-42
2021/04/04 07:06:29;;;;;;;10.32;7.17;;;;;;;6.19;66.06;100351.41;1710278;82;21158;-43
2021/04/04 07:09:17;;;;;;;16.80;9.13;;;;;;;6.17;65.83;100354.58;1689223;82;21954;-43
2021/04/04 07:11:53;;;;;;;15.55;8.55;;;;;;;6.13;66.13;100355.65;1628741;86;21451;-43
2021/04/04 07:14:51;;;;;;;14.18;8.40;;;;;;;6.08;65.64;100354.52;1627207;86;21190;-39
2021/04/04 07:17:38;;;;;;;10.63;7.28;;;;;;;6.05;65.61;100350.21;1614142;87;21225;-40
2021/04/04 07:20:19;;;;;;;8.18;6.50;;;;;;;6.02;65.17;100354.75;1629248;86;21638;-41
2021/04/04 07:23:22;;;;;;;11.12;7.65;;;;;;;6.04;65.69;100357.73;1621551;87;21185;-40
2021/04/04 07:26:28;;;;;;;17.60;8.38;;;;;;;6.08;65.80;100362.92;1622174;86;21215;-40
2021/04/04 07:30:28;;;;;;;18.25;8.55;;;;;;;6.13;65.86;100363.59;1792560;78;23167;-41
2021/04/04 07:32:48;;;;;;;12.58;8.83;;;;;;;6.10;66.39;100368.99;1761858;79;21113;-41
2021/04/04 07:35:20;;;;;;;14.05;8.18;;;;;;;6.16;65.79;100367.43;1774154;80;21160;-41
2021/04/04 07:38:00;;;;;;;12.85;9.40;;;;;;;6.19;65.78;100366.83;1769974;79;21168;-43
2021/04/04 07:40:38;;;;;;;11.23;7.10;;;;;;;6.21;65.82;100370.75;1778070;79;21651;-41
2021/04/04 07:43:09;;;;;;;10.45;6.90;;;;;;;6.25;65.65;100366.58;1776124;79;21141;-41
2021/04/04 07:45:43;;;;;;;13.65;8.25;;;;;;;6.34;65.54;100374.59;1737813;81;21514;-42
2021/04/04 07:48:30;;;;;;;10.15;6.00;;;;;;;6.44;66.21;100373.73;1698503;82;21593;-43
2021/04/04 07:51:15;;;;;;;11.15;6.70;;;;;;;6.54;65.85;100370.23;1709109;81;22073;-42
2021/04/04 07:54:07;;;;;;;12.00;7.92;;;;;;;6.63;65.05;100376.47;1727271;80;21189;-44
2021/04/04 07:57:14;;;;;;;9.73;7.72;;;;;;;6.65;64.04;100370.17;1706540;82;21157;-41
2021/04/04 07:59:47;;;;;;;9.88;7.00;;;;;;;6.69;64.67;100370.88;1714743;82;21295;-44
2021/04/04 08:02:22;;;;;;;10.05;6.53;;;;;;;6.72;63.96;100380.02;1696775;82;21166;-42
2021/04/04 08:05:01;;;;;;;12.90;7.05;;;;;;;6.76;63.77;100376.78;1717263;82;21174;-42
2021/04/04 08:07:54;;;;;;;8.60;5.30;;;;;;;6.82;63.33;100379.14;1713690;82;21644;-38
2021/04/04 08:10:36;;;;;;;8.20;5.20;;;;;;;6.87;62.77;100377.15;1707151;82;21718;-40
2021/04/04 08:13:35;;;;;;;6.58;4.75;;;;;;;6.89;62.46;100376.16;1706530;82;21197;-39
2021/04/04 08:16:14;;;;;;;6.42;4.58;;;;;;;6.94;62.25;100374.16;1712085;82;21149;-43
2021/04/04 08:18:41;;;;;;;7.45;4.90;;;;;;;7.02;62.23;100378.25;1711794;82;21629;-43
2021/04/04 08:21:15;;;;;;;10.18;5.75;;;;;;;7.07;62.00;100379.76;1707452;82;21676;-43
2021/04/04 08:24:13;;;;;;;7.17;4.45;;;;;;;7.09;62.04;100371.75;1706978;82;21141;-44
2021/04/04 08:26:48;;;;;;;9.08;5.08;;;;;;;7.12;61.96;100372.92;1713472;82;21196;-45
2021/04/04 08:29:25;;;;;;;6.92;4.40;;;;;;;7.19;61.65;100369.54;1717490;82;21668;-44
2021/04/04 08:32:00;;;;;;;8.68;5.03;;;;;;;7.25;61.54;100367.91;1719421;82;21485;-43
2021/04/04 08:34:37;;;;;;;11.08;5.62;;;;;;;7.31;60.95;100362.34;1707245;82;21470;-44
2021/04/04 08:37:16;;;;;;;9.10;5.22;;;;;;;7.33;60.80;100363.10;1715245;82;21171;-45
2021/04/04 08:39:54;;;;;;;12.58;4.95;;;;;;;7.34;60.11;100363.05;1714489;82;21145;-44
2021/04/04 08:42:22;;;;;;;6.67;4.33;;;;;;;7.32;60.44;100362.72;1708895;82;22013;-42
2021/04/04 08:44:54;;;;;;;7.00;4.62;;;;;;;7.32;60.42;100360.92;1716295;81;21176;-43
2021/04/04 08:47:31;;;;;;;6.78;4.08;;;;;;;7.33;60.12;100357.80;1689300;82;21775;-44
2021/04/04 08:50:01;;;;;;;5.37;3.20;;;;;;;7.32;60.26;100358.27;1709620;81;21171;-43
2021/04/04 08:52:32;;;;;;;6.70;3.70;;;;;;;7.37;59.96;100360.71;1716377;82;21592;-44
2021/04/04 08:55:00;;;;;;;5.15;3.92;;;;;;;7.40;59.40;100358.38;1672763;82;21185;-45
2021/04/04 08:57:37;;;;;;;5.10;3.72;;;;;;;7.44;59.70;100359.97;1713817;82;21164;-43
2021/04/04 09:00:09;;;;;;;5.17;3.50;;;;;;;7.51;59.05;100360.05;1711470;81;21658;-42
2021/04/04 09:02:39;;;;;;;8.18;3.95;;;;;;;7.53;59.07;100347.12;1713047;82;21186;-43
2021/04/04 09:05:08;;;;;;;4.80;3.02;;;;;;;7.58;59.39;100349.53;1710162;82;21172;-47
2021/04/04 09:07:43;;;;;;;5.70;3.17;;;;;;;7.69;59.36;100350.36;1710402;82;21168;-45
2021/04/04 09:10:14;;;;;;;6.20;3.67;;;;;;;7.84;59.59;100352.71;1719915;81;21169;-42
2021/04/04 09:12:44;;;;;;;4.83;3.50;;;;;;;8.00;58.74;100347.05;1724198;81;21215;-45
2021/04/04 09:15:13;;;;;;;4.53;2.92;;;;;;;8.14;58.76;100346.34;1704643;81;21157;-47
2021/04/04 09:17:51;;;;;;;3.70;2.60;;;;;;;8.26;57.85;100348.38;1708949;82;21134;-43
2021/04/04 09:20:35;;;;;;;5.28;3.20;;;;;;;8.43;56.77;100347.56;1799548;77;22165;-43
2021/04/04 09:23:04;;;;;;;4.17;3.08;;;;;;;8.45;55.21;100353.19;1774697;78;21609;-43
2021/04/04 09:25:34;;;;;;;3.83;2.50;;;;;;;8.50;55.29;100340.14;1775175;78;21138;-43
2021/04/04 09:28:07;;;;;;;5.35;3.05;;;;;;;8.56;53.87;100340.66;1777492;78;21109;-45
2021/04/04 09:30:42;;;;;;;3.45;2.77;;;;;;;8.58;54.55;100340.11;1770002;78;21153;-42
2021/04/04 09:33:14;;;;;;;5.33;2.65;;;;;;;8.61;55.13;100343.94;1715806;81;21181;-46
2021/04/04 09:35:41;;;;;;;;;;;;;;;8.67;54.78;100341.45;1719013;81;21149;-43
2021/04/04 09:38:14;;;;;;;4.67;2.90;;;;;;;8.77;53.19;100331.16;1713751;81;20171;-44
2021/04/04 09:40:43;;;;;;;3.55;2.50;;;;;;;8.82;53.49;100327.34;1714603;81;21526;-44
2021/04/04 09:43:15;;;;;;;5.67;3.17;;;;;;;8.90;53.59;100324.27;1705699;83;21205;-42
2021/04/04 09:45:43;;;;;;;4.30;2.83;;;;;;;8.98;53.31;100322.04;1703957;83;21170;-41
2021/04/04 09:48:23;;;;;;;5.20;2.72;;;;;;;9.05;53.25;100326.09;1702412;83;21150;-40
2021/04/04 09:51:14;;;;;;;5.22;2.40;;;;;;;9.10;52.04;100325.36;1704623;83;21726;-43
2021/04/04 09:53:49;;;;;;;3.55;2.45;;;;;;;9.11;52.05;100320.89;1703300;83;21599;-46
2021/04/04 09:56:31;;;;;;;3.50;2.17;;;;;;;9.19;52.44;100313.83;1703243;83;21854;-44
2021/04/04 09:58:59;;;;;;;4.25;3.00;;;;;;;9.30;51.80;100316.28;1703931;83;21181;-43
2021/04/04 10:01:50;;;;;;;9.65;4.60;;;;;;;9.35;50.78;100316.48;1698915;82;21198;-46
2021/04/04 10:04:17;;;;;;;6.15;4.42;;;;;;;9.29;51.61;100315.02;1702939;83;21194;-43
2021/04/04 10:06:45;;;;;;;5.78;3.52;;;;;;;9.21;53.87;100323.44;1707635;82;21402;-43
2021/04/04 10:09:13;;;;;;;4.62;3.67;;;;;;;8.99;55.56;100333.53;1675191;82;21157;-44
2021/04/04 10:11:42;;;;;;;4.83;3.67;;;;;;;8.61;56.75;100327.13;1710759;82;21134;-42
2021/04/04 10:14:15;;;;;;;5.55;4.33;;;;;;;8.29;57.99;100334.08;1674215;83;21165;-44
2021/04/04 10:16:44;;;;;;;5.87;4.90;;;;;;;8.01;59.26;100339.46;1711754;82;21708;-44
2021/04/04 10:19:17;;;;;;;4.70;3.85;;;;;;;7.76;60.16;100334.50;1706295;82;21622;-44
2021/04/04 10:22:00;;;;;;;4.97;4.47;;;;;;;7.53;61.70;100351.11;1755490;80;21118;-50
2021/04/04 10:24:34;;;;;;;3.77;3.35;;;;;;;7.37;63.17;100346.13;1756528;80;21153;-42
2021/04/04 10:27:27;;;;;;;4.03;3.50;;;;;;;7.17;65.37;100356.81;1751976;80;21578;-44
2021/04/04 10:30:17;;;;;;;4.00;3.10;;;;;;;6.96;67.32;100378.55;1755030;80;21153;-43
2021/04/04 10:32:48;;;;;;;5.28;3.80;;;;;;;6.73;67.96;100367.17;1752732;80;21615;-44
2021/04/04 10:35:34;;;;;;;5.95;4.05;;;;;;;6.59;69.86;100378.37;1753723;80;21118;-43
2021/04/04 10:38:10;;;;;;;5.25;3.75;;;;;;;6.50;70.69;100380.08;1751351;80;21142;-44
2021/04/04 10:40:53;;;;;;;5.50;4.45;;;;;;;6.40;72.05;100387.59;1799206;77;23535;-45
2021/04/04 10:43:25;;;;;;;5.37;3.67;;;;;;;6.26;73.42;100392.59;1752851;80;21136;-41
2021/04/04 10:45:58;;;;;;;4.92;3.40;;;;;;;6.13;74.64;100397.55;1747205;80;21142;-45
2021/04/04 10:48:27;;;;;;;8.03;4.15;;;;;;;6.03;75.27;100393.56;1754728;80;21373;-44
2021/04/04 10:50:55;;;;;;;6.35;4.15;;;;;;;5.95;76.40;100400.95;1753911;80;21157;-42
2021/04/04 10:53:23;;;;;;;5.50;4.55;;;;;;;5.86;76.94;100408.29;1756730;80;21146;-44
2021/04/04 10:55:52;;;;;;;7.03;4.90;;;;;;;5.74;77.98;100410.09;1750574;80;21522;-43
2021/04/04 10:58:24;;;;;;;6.85;4.67;;;;;;;5.59;78.08;100415.99;1752646;80;21177;-42
2021/04/04 11:00:50;;;;;;;6.08;5.45;;;;;;;5.50;78.94;100412.41;1754155;80;21570;-39
2021/04/04 11:03:18;;;;;;;5.03;4.42;;;;;;;5.46;79.57;100404.17;1748654;80;21173;-41
2021/04/04 11:05:47;;;;;;;5.50;4.45;;;;;;;5.52;79.62;100392.02;1753208;80;21574;-40
2021/04/04 11:08:15;;;;;;;8.48;5.12;;;;;;;5.59;79.49;100374.98;1752887;80;21161;-39
2021/04/04 11:10:44;;;;;;;5.67;4.42;;;;;;;5.65;79.31;100365.50;1752298;80;21136;-42
2021/04/04 11:13:14;;;;;;;5.37;4.57;;;;;;;5.73;79.50;100364.73;1752693;80;21110;-43
2021/04/04 11:15:45;;;;;;;5.10;4.30;;;;;;;5.93;80.08;100359.09;1753259;80;21380;-42
2021/04/04 11:18:16;;;;;;;4.97;4.50;;;;;;;6.17;80.30;100365.17;1749677;80;21125;-41
2021/04/04 11:20:46;;;;;;;7.28;4.15;;;;;;;6.38;80.47;100359.45;1752263;80;21143;-43
2021/04/04 11:23:17;;;;;;;5.25;3.95;;;;;;;6.59;80.51;100357.17;1727757;81;21154;-42
2021/04/04 11:25:45;;;;;;;6.28;3.75;;;;;;;6.77;80.05;100358.61;1754394;80;21153;-41
2021/04/04 11:28:19;;;;;;;4.30;3.90;;;;;;;6.94;79.62;100350.77;1716073;81;21136;-41
2021/04/04 11:30:53;;;;;;;4.58;4.08;;;;;;;7.13;79.29;100356.95;1702066;82;21146;-42
2021/04/04 11:33:25;;;;;;;4.78;4.28;;;;;;;7.28;78.86;100342.56;1684112;83;21169;-43
2021/04/04 11:36:13;;;;;;;3.40;3.10;;;;;;;7.38;78.46;100341.20;1703811;82;21134;-44
2021/04/04 11:38:54;;;;;;;5.97;4.50;;;;;;;7.48;77.86;100341.15;1700400;83;21172;-44
2021/04/04 11:41:27;;;;;;;4.50;3.40;;;;;;;7.57;77.38;100342.52;1662127;83;21155;-46
2021/04/04 11:44:18;;;;;;;4.12;3.72;;;;;;;7.65;77.12;100342.15;1703589;82;21299;-45
2021/04/04 11:46:55;;;;;;;5.08;3.98;;;;;;;7.76;76.54;100334.50;1701799;82;21146;-45
2021/04/04 11:49:39;;;;;;;6.75;4.05;;;;;;;7.85;74.90;100335.86;1737155;81;21142;-42
2021/04/04 11:52:18;;;;;;;6.30;4.35;;;;;;;7.89;74.35;100338.30;1738924;81;21103;-44
2021/04/04 11:54:56;;;;;;;4.27;3.87;;;;;;;7.94;74.19;100333.62;1739141;80;21816;-43
2021/04/04 11:57:31;;;;;;;5.28;3.85;;;;;;;7.99;74.18;100328.94;1738479;80;21142;-41
2021/04/04 12:00:03;;;;;;;4.00;3.60;;;;;;;8.08;74.04;100320.95;1739781;80;21161;-41
2021/04/04 12:02:32;;;;;;;4.95;4.45;;;;;;;8.17;73.56;100326.29;1741033;80;21142;-42